Time,TemperatureF,DewpointF,PressureIn,WindDirection,WindDirectionDegrees,WindSpeedMPH,WindSpeedGustMPH,Humidity,HourlyPrecipIn,Conditions,Clouds,dailyrainin,SoftwareType,DateUTC
2013-06-20 00:02:00,54.0,49.0,30.12,NW,324,0.0,1.0,84,0.00,,,0.05,,2013-06-20 04:02:00,
2013-06-20 00:11:00,54.0,50.0,30.13,NW,323,0.0,0.0,85,0.00,,,0.05,,2013-06-20 04:11:00,
2013-06-20 00:23:00,54.0,50.0,30.13,NW,324,0.0,0.0,86,0.00,,,0.05,,2013-06-20 04:23:00,
2013-06-20 00:34:00,53.0,49.0,30.14,NW,324,0.0,1.0,87,0.00,,,0.02,,2013-06-20 04:34:00,
2013-06-20 00:43:00,53.0,49.0,30.14,NW,324,0.0,1.0,87,0.00,,,0.02,,2013-06-20 04:43:00,
2013-06-20 00:54:00,53.0,50.0,30.14,NW,324,0.0,0.0,88,0.00,,,0.02,,2013-06-20 04:54:00,
2013-06-20 01:02:00,53.0,50.0,30.14,NW,324,0.0,0.0,88,0.00,,,0.02,,2013-06-20 05:02:00,
2013-06-20 01:12:00,53.0,50.0,30.14,NW,324,0.0,1.0,88,0.00,,,0.02,,2013-06-20 05:12:00,
2013-06-20 01:22:00,53.0,50.0,30.15,NW,324,0.0,0.0,89,0.00,,,0.01,,2013-06-20 05:22:00,
2013-06-20 01:33:00,53.0,50.0,30.14,NW,324,0.0,1.0,89,0.00,,,0.01,,2013-06-20 05:33:00,
2013-06-20 01:44:00,53.0,50.0,30.14,NW,324,0.0,1.0,89,0.00,,,0.01,,2013-06-20 05:44:00,
2013-06-20 01:53:00,53.0,50.0,30.15,NW,324,0.0,1.0,89,0.00,,,0.01,,2013-06-20 05:53:00,
2013-06-20 02:02:00,52.0,49.0,30.15,NW,324,0.0,1.0,89,0.00,,,0.01,,2013-06-20 06:02:00,
2013-06-20 02:11:00,52.0,49.0,30.15,NW,324,0.0,1.0,89,0.00,,,0.01,,2013-06-20 06:11:00,
2013-06-20 02:22:00,52.0,49.0,30.14,NW,323,0.0,0.0,89,0.00,,,0.01,,2013-06-20 06:22:00,
2013-06-20 02:34:00,52.0,49.0,30.16,NW,324,0.0,0.0,89,0.00,,,0.01,,2013-06-20 06:34:00,
2013-06-20 02:43:00,52.0,49.0,30.16,NW,324,0.0,0.0,89,0.00,,,0.01,,2013-06-20 06:43:00,
2013-06-20 02:53:00,52.0,49.0,30.16,NW,324,0.0,1.0,90,0.00,,,0.01,,2013-06-20 06:53:00,
2013-06-20 03:01:00,52.0,49.0,30.16,NW,324,0.0,1.0,90,0.00,,,0.01,,2013-06-20 07:01:00,
2013-06-20 03:12:00,52.0,49.0,30.16,NW,324,0.0,1.0,90,0.00,,,0.01,,2013-06-20 07:12:00,
2013-06-20 03:22:00,52.0,49.0,30.16,NW,324,0.0,2.0,90,0.00,,,0.01,,2013-06-20 07:22:00,
2013-06-20 03:34:00,52.0,49.0,30.16,NW,324,0.0,1.0,90,0.00,,,0.01,,2013-06-20 07:34:00,
2013-06-20 03:44:00,52.0,49.0,30.16,NW,324,0.0,1.0,90,0.00,,,0.01,,2013-06-20 07:44:00,
2013-06-20 03:53:00,51.0,48.0,30.16,NW,324,0.0,0.0,90,0.00,,,0.01,,2013-06-20 07:53:00,
2013-06-20 04:02:00,51.0,48.0,30.16,NW,324,0.0,0.0,90,0.00,,,0.01,,2013-06-20 08:02:00,
2013-06-20 04:11:00,51.0,48.0,30.16,NW,324,0.0,0.0,90,0.00,,,0.01,,2013-06-20 08:11:00,
2013-06-20 04:22:00,51.0,48.0,30.17,NW,324,0.0,0.0,90,0.00,,,0.01,,2013-06-20 08:22:00,
2013-06-20 04:34:00,51.0,48.0,30.17,NW,324,0.0,0.0,90,0.00,,,0.01,,2013-06-20 08:34:00,
2013-06-20 04:43:00,51.0,48.0,30.17,NW,324,0.0,0.0,90,0.00,,,0.01,,2013-06-20 08:43:00,
2013-06-20 04:53:00,51.0,48.0,30.17,NW,324,0.0,0.0,90,0.00,,,0.01,,2013-06-20 08:53:00,
2013-06-20 05:02:00,51.0,48.0,30.17,NW,324,0.0,0.0,90,0.00,,,0.01,,2013-06-20 09:02:00,
2013-06-20 05:12:00,50.0,47.0,30.17,NW,324,0.0,1.0,90,0.00,,,0.01,,2013-06-20 09:12:00,
2013-06-20 05:22:00,50.0,47.0,30.18,NW,324,0.0,1.0,90,0.00,,,0.01,,2013-06-20 09:22:00,
2013-06-20 05:33:00,50.0,47.0,30.19,NW,324,0.0,1.0,91,0.00,,,0.01,,2013-06-20 09:33:00,
2013-06-20 05:42:00,50.0,47.0,30.19,NW,324,0.0,1.0,91,0.00,,,0.01,,2013-06-20 09:42:00,
2013-06-20 05:52:00,50.0,47.0,30.19,NW,324,0.0,1.0,90,0.00,,,0.01,,2013-06-20 09:52:00,
2013-06-20 06:02:00,49.0,46.0,30.20,NW,324,0.0,1.0,91,0.00,,,0.01,,2013-06-20 10:02:00,
2013-06-20 06:11:00,49.0,46.0,30.20,NW,324,0.0,1.0,91,0.00,,,0.01,,2013-06-20 10:11:00,
2013-06-20 06:22:00,50.0,47.0,30.20,NW,324,0.0,1.0,91,0.00,,,0.01,,2013-06-20 10:22:00,
2013-06-20 06:34:00,50.0,47.0,30.20,NW,324,0.0,1.0,91,0.00,,,0.01,,2013-06-20 10:34:00,
2013-06-20 06:43:00,50.0,47.0,30.21,NW,324,0.0,0.0,91,0.00,,,0.01,,2013-06-20 10:43:00,
2013-06-20 06:53:00,51.0,49.0,30.21,NW,324,0.0,0.0,92,0.00,,,0.01,,2013-06-20 10:53:00,
2013-06-20 07:02:00,52.0,50.0,30.22,NW,324,0.0,0.0,92,0.00,,,0.01,,2013-06-20 11:02:00,
2013-06-20 07:12:00,52.0,50.0,30.22,NW,324,0.0,0.0,92,0.00,,,0.01,,2013-06-20 11:12:00,
2013-06-20 07:22:00,53.0,51.0,30.22,NW,324,0.0,0.0,92,0.00,,,0.01,,2013-06-20 11:22:00,
2013-06-20 07:34:00,53.0,51.0,30.22,NW,324,0.0,0.0,92,0.00,,,0.01,,2013-06-20 11:34:00,
2013-06-20 07:43:00,54.0,52.0,30.23,NW,324,0.0,0.0,92,0.00,,,0.01,,2013-06-20 11:43:00,
2013-06-20 07:53:00,56.0,53.0,30.23,NW,324,0.0,0.0,91,0.00,,,0.01,,2013-06-20 11:53:00,
2013-06-20 08:02:00,56.0,53.0,30.23,NW,324,0.0,0.0,91,0.00,,,0.01,,2013-06-20 12:02:00,
2013-06-20 08:12:00,57.0,54.0,30.23,NW,324,0.0,0.0,89,0.00,,,0.01,,2013-06-20 12:12:00,
2013-06-20 08:22:00,57.0,53.0,30.23,NW,324,0.0,1.0,86,0.00,,,0.01,,2013-06-20 12:22:00,
2013-06-20 08:34:00,57.0,53.0,30.23,NW,324,0.0,1.0,86,0.00,,,0.01,,2013-06-20 12:34:00,
2013-06-20 08:43:00,59.0,54.0,30.24,NW,324,0.0,1.0,82,0.00,,,0.01,,2013-06-20 12:43:00,
2013-06-20 08:53:00,59.0,52.0,30.24,NW,324,0.0,1.0,78,0.00,,,0.01,,2013-06-20 12:53:00,
2013-06-20 09:02:00,59.0,52.0,30.24,NW,324,0.0,1.0,78,0.00,,,0.01,,2013-06-20 13:02:00,
2013-06-20 09:11:00,61.0,53.0,30.24,NW,324,0.0,1.0,75,0.00,,,0.01,,2013-06-20 13:11:00,
2013-06-20 09:22:00,62.0,52.0,30.24,NW,324,0.0,1.0,71,0.00,,,0.01,,2013-06-20 13:22:00,
2013-06-20 09:33:00,62.0,52.0,30.24,NW,324,0.0,1.0,71,0.00,,,0.01,,2013-06-20 13:33:00,
2013-06-20 09:42:00,63.0,53.0,30.24,NW,324,0.0,1.0,69,0.00,,,0.01,,2013-06-20 13:42:00,
2013-06-20 09:53:00,64.0,52.0,30.24,NW,324,0.0,1.0,66,0.00,,,0.01,,2013-06-20 13:53:00,
2013-06-20 10:02:00,65.0,52.0,30.24,NW,324,0.0,1.0,62,0.00,,,0.01,,2013-06-20 14:02:00,
2013-06-20 10:11:00,65.0,52.0,30.24,NW,324,0.0,1.0,62,0.00,,,0.01,,2013-06-20 14:11:00,
2013-06-20 10:22:00,66.0,49.0,30.23,NW,324,0.0,1.0,54,0.00,,,0.01,,2013-06-20 14:22:00,
2013-06-20 10:32:00,66.0,49.0,30.23,NW,324,0.0,1.0,54,0.00,,,0.01,,2013-06-20 14:32:00,
2013-06-20 10:42:00,67.0,50.0,30.23,NW,324,0.0,2.0,55,0.00,,,0.01,,2013-06-20 14:42:00,
2013-06-20 10:53:00,68.0,51.0,30.23,NW,324,0.0,1.0,54,0.00,,,0.01,,2013-06-20 14:53:00,
2013-06-20 11:02:00,68.0,51.0,30.23,NW,324,0.0,1.0,54,0.00,,,0.01,,2013-06-20 15:02:00,
2013-06-20 11:11:00,68.0,48.0,30.23,NNW,332,0.0,2.0,48,0.00,,,0.01,,2013-06-20 15:11:00,
2013-06-20 11:22:00,69.0,48.0,30.24,WNW,287,0.0,3.0,47,0.00,,,0.01,,2013-06-20 15:22:00,
2013-06-20 11:33:00,69.0,48.0,30.24,WNW,287,0.0,3.0,47,0.00,,,0.01,,2013-06-20 15:33:00,
2013-06-20 11:43:00,69.0,47.0,30.24,NW,322,0.0,2.0,46,0.00,,,0.01,,2013-06-20 15:43:00,
2013-06-20 11:53:00,70.0,48.0,30.23,NW,322,1.0,4.0,45,0.00,,,0.01,,2013-06-20 15:53:00,
2013-06-20 12:02:00,71.0,49.0,30.23,SSW,193,0.0,5.0,45,0.00,,,0.01,,2013-06-20 16:02:00,
2013-06-20 12:12:00,71.0,49.0,30.23,SSW,193,0.0,5.0,45,0.00,,,0.01,,2013-06-20 16:12:00,
2013-06-20 12:22:00,71.0,49.0,30.24,SW,225,3.0,10.0,45,0.00,,,0.01,,2013-06-20 16:22:00,
2013-06-20 12:33:00,71.0,49.0,30.24,SW,225,3.0,10.0,45,0.00,,,0.01,,2013-06-20 16:33:00,
2013-06-20 12:43:00,71.0,50.0,30.23,WNW,286,1.0,6.0,48,0.00,,,0.01,,2013-06-20 16:43:00,
2013-06-20 12:53:00,71.0,50.0,30.23,WSW,251,2.0,6.0,47,0.00,,,0.01,,2013-06-20 16:53:00,
2013-06-20 13:02:00,71.0,50.0,30.23,WSW,251,2.0,6.0,47,0.00,,,0.01,,2013-06-20 17:02:00,
2013-06-20 13:12:00,71.0,50.0,30.23,WSW,248,0.0,7.0,48,0.00,,,0.01,,2013-06-20 17:12:00,
2013-06-20 13:22:00,72.0,49.0,30.23,ENE,76,0.0,8.0,45,0.00,,,0.00,,2013-06-20 17:22:00,
2013-06-20 13:32:00,72.0,49.0,30.23,ENE,76,0.0,8.0,45,0.00,,,0.00,,2013-06-20 17:32:00,
2013-06-20 13:43:00,72.0,51.0,30.22,SSE,155,1.0,8.0,48,0.00,,,0.00,,2013-06-20 17:43:00,
2013-06-20 13:53:00,72.0,49.0,30.22,WNW,297,1.0,8.0,45,0.00,,,0.00,,2013-06-20 17:53:00,
2013-06-20 14:01:00,72.0,49.0,30.22,WNW,297,1.0,8.0,45,0.00,,,0.00,,2013-06-20 18:01:00,
2013-06-20 14:11:00,72.0,49.0,30.22,SSE,157,0.0,8.0,45,0.00,,,0.00,,2013-06-20 18:11:00,
2013-06-20 14:22:00,73.0,50.0,30.22,West,265,2.0,8.0,45,0.00,,,0.00,,2013-06-20 18:22:00,
2013-06-20 14:33:00,73.0,50.0,30.22,SW,223,1.0,11.0,44,0.00,,,0.00,,2013-06-20 18:33:00,
2013-06-20 14:43:00,73.0,50.0,30.22,SW,223,1.0,11.0,44,0.00,,,0.00,,2013-06-20 18:43:00,
2013-06-20 14:53:00,73.0,50.0,30.21,East,80,0.0,7.0,44,0.00,,,0.00,,2013-06-20 18:53:00,
2013-06-20 15:01:00,73.0,50.0,30.21,East,80,0.0,7.0,44,0.00,,,0.00,,2013-06-20 19:01:00,
2013-06-20 15:11:00,74.0,52.0,30.21,SSW,192,0.0,6.0,46,0.00,,,0.00,,2013-06-20 19:11:00,
2013-06-20 15:22:00,74.0,51.0,30.21,SW,220,1.0,10.0,44,0.00,,,0.00,,2013-06-20 19:22:00,
2013-06-20 15:34:00,74.0,49.0,30.21,SSW,197,0.0,8.0,42,0.00,,,0.00,,2013-06-20 19:34:00,
2013-06-20 15:43:00,74.0,49.0,30.21,SSW,197,0.0,8.0,42,0.00,,,0.00,,2013-06-20 19:43:00,
2013-06-20 15:52:00,75.0,46.0,30.20,West,272,3.0,10.0,36,0.00,,,0.00,,2013-06-20 19:52:00,
2013-06-20 16:02:00,75.0,47.0,30.20,SSW,211,1.0,6.0,37,0.00,,,0.00,,2013-06-20 20:02:00,
2013-06-20 16:11:00,75.0,47.0,30.20,SSW,211,1.0,6.0,37,0.00,,,0.00,,2013-06-20 20:11:00,
2013-06-20 16:22:00,75.0,44.0,30.20,SSW,201,4.0,9.0,33,0.00,,,0.00,,2013-06-20 20:22:00,
2013-06-20 16:33:00,75.0,44.0,30.20,SSW,201,4.0,9.0,33,0.00,,,0.00,,2013-06-20 20:33:00,
2013-06-20 16:53:00,76.0,46.0,30.19,SSW,208,2.0,8.0,34,0.00,,,0.00,,2013-06-20 20:53:00,